Time;durP1;ratioP1;P1;durP2;ratioP2;P2;SDS_P1;SDS_P2;PMS_P1;PMS_P2;Temp;Humidity;BMP_temperature;BMP_pressure;BME280_temperature;BME280_humidity;BME280_pressure;Samples;Min_cycle;Max_cycle;Signal;HPM_P1;HPM_P2
2022/09/25 00:00:46;;;;;;;21.00;17.93;;;;;;;;;;5081186;28;20304;-74
2022/09/25 00:03:13;;;;;;;23.30;19.27;;;;;;;;;;5071963;28;20238;-74
2022/09/25 00:05:40;;;;;;;18.83;16.20;;;;;;;;;;5075159;28;20661;-74
2022/09/25 00:08:07;;;;;;;20.37;18.17;;;;;;;;;;5076902;28;20192;-74
2022/09/25 00:10:33;;;;;;;22.53;18.90;;;;;;;;;;5077860;28;21686;-74
2022/09/25 00:12:59;;;;;;;19.03;16.80;;;;;;;;;;5074422;28;20213;-74
2022/09/25 00:15:26;;;;;;;20.37;17.47;;;;;;;;;;5077806;28;20706;-74
2022/09/25 00:17:52;;;;;;;23.47;19.20;;;;;;;;;;5061752;28;20721;-74
2022/09/25 00:20:19;;;;;;;21.37;17.70;;;;;;;;;;5084362;28;20262;-74
2022/09/25 00:22:46;;;;;;;21.47;17.83;;;;;;;;;;5084137;28;20279;-74
2022/09/25 00:25:14;;;;;;;18.47;16.43;;;;;;;;;;5079316;28;20235;-74
2022/09/25 00:27:41;;;;;;;17.53;15.67;;;;;;;;;;5077770;28;20223;-74
2022/09/25 00:30:07;;;;;;;24.00;18.70;;;;;;;;;;5086401;28;20201;-74
2022/09/25 00:32:34;;;;;;;19.07;15.30;;;;;;;;;;5083194;28;20258;-74
2022/09/25 00:35:00;;;;;;;15.37;13.77;;;;;;;;;;5081859;28;20313;-74
2022/09/25 00:37:27;;;;;;;16.33;14.57;;;;;;;;;;5076746;28;20176;-74
2022/09/25 00:39:54;;;;;;;17.27;14.97;;;;;;;;;;5086513;28;20208;-74
2022/09/25 00:42:23;;;;;;;16.67;14.67;;;;;;;;;;5061762;28;20837;-74
2022/09/25 00:44:55;;;;;;;20.07;17.17;;;;;;;;;;5067058;28;20497;-74
2022/09/25 00:47:28;;;;;;;18.10;15.90;;;;;;;;;;5082617;28;20215;-74
2022/09/25 00:49:55;;;;;;;19.90;17.50;;;;;;;;;;5083018;28;20227;-74
2022/09/25 00:52:22;;;;;;;20.23;18.00;;;;;;;;;;5079940;28;20239;-74
2022/09/25 00:54:57;;;;;;;19.70;16.07;;;;;;;;;;5078996;28;20185;-74
2022/09/25 00:57:25;;;;;;;20.47;17.47;;;;;;;;;;5086165;28;20176;-74
2022/09/25 00:59:53;;;;;;;19.37;17.20;;;;;;;;;;5077728;28;20258;-74
2022/09/25 01:02:30;;;;;;;17.83;15.87;;;;;;;;;;5082138;28;20224;-75
2022/09/25 01:04:59;;;;;;;20.07;17.17;;;;;;;;;;5084727;28;20172;-74
2022/09/25 01:07:25;;;;;;;18.00;15.50;;;;;;;;;;5084809;28;20745;-74
2022/09/25 01:09:51;;;;;;;18.20;15.27;;;;;;;;;;5077922;28;20296;-74
2022/09/25 01:12:17;;;;;;;16.80;14.40;;;;;;;;;;5077902;28;20515;-74
2022/09/25 01:14:43;;;;;;;19.60;17.40;;;;;;;;;;5078933;28;20192;-74
2022/09/25 01:17:17;;;;;;;18.73;15.47;;;;;;;;;;5077093;28;20671;-74
2022/09/25 01:20:02;;;;;;;19.53;16.57;;;;;;;;;;5076878;28;20694;-76
2022/09/25 01:22:32;;;;;;;19.20;15.90;;;;;;;;;;5080346;28;20212;-74
2022/09/25 01:25:04;;;;;;;18.87;16.67;;;;;;;;;;5077496;28;20676;-75
2022/09/25 01:27:56;;;;;;;17.13;15.20;;;;;;;;;;5081352;28;20260;-75
2022/09/25 01:30:22;;;;;;;18.13;15.90;;;;;;;;;;5048985;28;20582;-75
2022/09/25 01:32:55;;;;;;;18.73;15.07;;;;;;;;;;5081188;28;20226;-74
2022/09/25 01:35:21;;;;;;;14.97;13.47;;;;;;;;;;5077231;28;20601;-75
2022/09/25 01:37:58;;;;;;;17.47;15.07;;;;;;;;;;5080793;28;20186;-74
2022/09/25 01:40:29;;;;;;;18.00;14.90;;;;;;;;;;5078641;28;20192;-75
2022/09/25 01:43:00;;;;;;;14.23;12.73;;;;;;;;;;5085881;28;20582;-74
2022/09/25 01:45:34;;;;;;;17.63;15.73;;;;;;;;;;5080777;28;20327;-75
2022/09/25 01:48:01;;;;;;;16.77;14.90;;;;;;;;;;5066372;28;20591;-75
2022/09/25 01:50:30;;;;;;;21.77;16.47;;;;;;;;;;5079316;28;20223;-74
2022/09/25 01:52:58;;;;;;;17.90;15.10;;;;;;;;;;5080617;28;20228;-74
2022/09/25 01:55:28;;;;;;;19.70;15.60;;;;;;;;;;5085326;28;20184;-74
2022/09/25 01:58:16;;;;;;;17.83;15.73;;;;;;;;;;5083297;28;20184;-75
2022/09/25 02:00:46;;;;;;;16.83;14.60;;;;;;;;;;5084417;28;20220;-75
2022/09/25 02:03:34;;;;;;;17.47;15.53;;;;;;;;;;5085341;28;20218;-74
2022/09/25 02:06:02;;;;;;;17.27;15.40;;;;;;;;;;5084777;28;20197;-74
2022/09/25 02:08:31;;;;;;;18.43;15.40;;;;;;;;;;5080384;28;20181;-74
2022/09/25 02:10:59;;;;;;;16.77;13.13;;;;;;;;;;5081420;28;20606;-74
2022/09/25 02:13:27;;;;;;;17.30;15.20;;;;;;;;;;5077679;28;20192;-74
2022/09/25 02:15:59;;;;;;;15.47;13.77;;;;;;;;;;5081472;28;20267;-74
2022/09/25 02:21:17;;;;;;;14.40;12.60;;;;;;;;;;5083839;28;20184;-74
2022/09/25 02:23:43;;;;;;;14.47;12.97;;;;;;;;;;5087635;28;20695;-74
2022/09/25 02:26:16;;;;;;;15.40;13.20;;;;;;;;;;5084124;28;20556;-74
2022/09/25 02:28:43;;;;;;;15.10;12.73;;;;;;;;;;5082660;28;20196;-74
2022/09/25 02:31:11;;;;;;;14.27;12.10;;;;;;;;;;5083212;28;20188;-74
2022/09/25 02:33:37;;;;;;;15.97;13.67;;;28.50;40.60;;;;;;5074579;28;20212;-74
2022/09/25 02:36:04;;;;;;;18.70;14.87;;;15.00;99.90;;;;;;5082731;28;20219;-74
2022/09/25 02:38:32;;;;;;;14.20;12.70;;;14.80;99.90;;;;;;5080969;28;20793;-74
2022/09/25 02:41:28;;;;;;;14.20;12.30;;;14.70;99.90;;;;;;5079064;28;20176;-74
2022/09/25 02:44:21;;;;;;;14.40;12.90;;;14.70;99.90;;;;;;5080760;28;20217;-74
2022/09/25 02:47:14;;;;;;;15.47;13.80;;;14.70;99.90;;;;;;5080422;28;20172;-74
2022/09/25 02:50:18;;;;;;;16.07;14.27;;;14.70;99.90;;;;;;5073209;28;20209;-74
2022/09/25 02:53:01;;;;;;;18.47;16.00;;;14.70;99.90;;;;;;5085623;28;20196;-74
2022/09/25 02:55:51;;;;;;;18.57;15.37;;;14.70;99.90;;;;;;5076178;28;20284;-74
2022/09/25 02:58:28;;;;;;;15.07;12.23;;;14.70;99.90;;;;;;5078513;28;20177;-74
2022/09/25 03:00:56;;;;;;;16.37;13.40;;;14.70;99.90;;;;;;5064979;28;20782;-74
2022/09/25 03:03:24;;;;;;;16.53;14.67;;;14.60;99.90;;;;;;5076761;28;20184;-74
2022/09/25 03:05:51;;;;;;;15.90;14.20;;;14.70;99.90;;;;;;5079822;28;20271;-74
2022/09/25 03:08:37;;;;;;;15.53;13.40;;;14.60;99.90;;;;;;5059796;28;20192;-74
2022/09/25 03:11:05;;;;;;;17.57;14.60;;;14.70;99.90;;;;;;5056515;28;20181;-74
2022/09/25 03:13:32;;;;;;;17.57;14.50;;;14.70;99.90;;;;;;5079249;28;20571;-74
2022/09/25 03:16:01;;;;;;;16.23;13.60;;;14.70;99.90;;;;;;5072069;28;20200;-74
2022/09/25 03:18:27;;;;;;;14.80;12.93;;;14.70;99.90;;;;;;5076852;28;20172;-74
2022/09/25 03:20:53;;;;;;;16.97;13.23;;;14.70;99.90;;;;;;5076177;28;20201;-74
2022/09/25 03:23:19;;;;;;;17.67;13.53;;;14.70;99.90;;;;;;5079836;28;20185;-74
2022/09/25 03:25:46;;;;;;;15.97;13.10;;;14.70;99.90;;;;;;5082202;28;20562;-74
2022/09/25 03:28:14;;;;;;;15.67;13.83;;;14.70;99.90;;;;;;5079271;28;20168;-74
2022/09/25 03:30:39;;;;;;;16.70;14.90;;;14.70;99.90;;;;;;5079856;28;20223;-74
2022/09/25 03:33:10;;;;;;;18.93;15.53;;;14.70;99.90;;;;;;5083283;28;20790;-74
2022/09/25 03:35:39;;;;;;;18.60;16.20;;;14.70;99.90;;;;;;5080581;28;20657;-74
2022/09/25 03:38:07;;;;;;;21.50;15.37;;;14.70;99.90;;;;;;5083448;28;20638;-74
2022/09/25 03:40:33;;;;;;;14.93;13.30;;;14.70;99.90;;;;;;5082112;28;20193;-74
2022/09/25 03:42:59;;;;;;;18.40;14.37;;;14.70;99.90;;;;;;5085524;28;20184;-74
2022/09/25 03:45:24;;;;;;;17.67;15.77;;;14.70;99.90;;;;;;5083888;28;20199;-74
2022/09/25 03:47:50;;;;;;;18.07;15.10;;;14.70;99.90;;;;;;5055216;28;20192;-74
2022/09/25 03:50:16;;;;;;;18.57;14.90;;;14.70;99.90;;;;;;5083096;28;20211;-74
2022/09/25 03:52:41;;;;;;;16.47;14.40;;;14.70;99.90;;;;;;5085817;28;20204;-74
2022/09/25 03:55:07;;;;;;;17.73;14.10;;;14.70;99.90;;;;;;5087816;28;20184;-74
2022/09/25 03:57:33;;;;;;;19.07;14.50;;;14.70;99.90;;;;;;5081988;28;20183;-74
2022/09/25 04:00:01;;;;;;;15.90;13.77;;;14.70;99.90;;;;;;5064346;28;20560;-74
2022/09/25 04:02:27;;;;;;;19.17;15.40;;;14.70;99.90;;;;;;5061439;28;20243;-74
2022/09/25 04:04:54;;;;;;;20.17;16.47;;;14.70;99.90;;;;;;5087530;28;20180;-74
2022/09/25 04:07:20;;;;;;;14.87;13.27;;;14.70;99.90;;;;;;5085894;28;20356;-74
2022/09/25 04:09:46;;;;;;;16.10;13.73;;;14.70;99.90;;;;;;5083347;28;20212;-74
2022/09/25 04:12:12;;;;;;;18.77;16.00;;;14.70;99.90;;;;;;5085667;28;20208;-74
2022/09/25 04:14:38;;;;;;;18.07;14.10;;;14.70;99.90;;;;;;5088480;28;20230;-74
2022/09/25 04:17:04;;;;;;;16.67;13.23;;;14.70;99.90;;;;;;5087090;28;20179;-74
2022/09/25 04:19:30;;;;;;;18.83;14.23;;;14.70;99.90;;;;;;5082977;28;20578;-74
2022/09/25 04:21:55;;;;;;;21.07;16.53;;;14.70;99.90;;;;;;5086359;28;20168;-74
2022/09/25 04:27:07;;;;;;;20.07;15.53;;;14.60;99.90;;;;;;5085828;28;20180;-74
2022/09/25 04:29:33;;;;;;;17.67;13.80;;;14.60;99.90;;;;;;5086582;28;20235;-74
2022/09/25 04:34:43;;;;;;;18.27;14.97;;;14.50;99.90;;;;;;5082408;28;20202;-74
2022/09/25 04:37:09;;;;;;;19.23;14.93;;;14.50;99.90;;;;;;5084363;28;20195;-74
2022/09/25 04:39:35;;;;;;;20.13;15.60;;;14.50;99.90;;;;;;5082556;28;20224;-74
2022/09/25 04:42:00;;;;;;;18.80;15.50;;;14.50;99.90;;;;;;5086805;28;20188;-74
2022/09/25 04:44:26;;;;;;;20.03;16.10;;;14.50;99.90;;;;;;5083914;28;20184;-74
2022/09/25 04:46:52;;;;;;;20.13;15.67;;;14.40;99.90;;;;;;5084064;28;20599;-74
2022/09/25 04:49:18;;;;;;;18.87;15.50;;;14.40;99.90;;;;;;5084124;28;20219;-74
2022/09/25 04:51:43;;;;;;;20.83;16.27;;;14.40;99.90;;;;;;5080223;28;20204;-74
2022/09/25 04:54:09;;;;;;;23.67;18.30;;;14.30;99.90;;;;;;5082310;28;21115;-74
2022/09/25 04:56:35;;;;;;;23.87;18.00;;;14.30;99.90;;;;;;5084582;28;20259;-74
2022/09/25 04:59:00;;;;;;;22.03;17.33;;;14.30;99.90;;;;;;5087259;28;20218;-74
2022/09/25 05:01:26;;;;;;;23.43;18.40;;;14.30;99.90;;;;;;5084597;28;20287;-74
2022/09/25 05:03:52;;;;;;;22.27;16.67;;;14.30;99.90;;;;;;5067488;28;20817;-74
2022/09/25 05:06:18;;;;;;;24.53;19.03;;;14.30;99.90;;;;;;5070732;28;20185;-74
2022/09/25 05:08:51;;;;;;;24.77;19.00;;;14.30;99.90;;;;;;5088644;28;20187;-74
2022/09/25 05:11:17;;;;;;;24.10;18.17;;;14.30;99.90;;;;;;5085690;28;20187;-74
2022/09/25 05:13:46;;;;;;;18.93;15.50;;;14.20;99.90;;;;;;5086979;28;20303;-74
2022/09/25 05:16:11;;;;;;;20.47;16.13;;;14.20;99.90;;;;;;5085054;28;20172;-74
2022/09/25 05:18:37;;;;;;;21.47;15.97;;;14.30;99.90;;;;;;5087441;28;20273;-74
2022/09/25 05:21:04;;;;;;;21.40;15.97;;;14.30;99.90;;;;;;5088164;28;20736;-74
2022/09/25 05:23:29;;;;;;;20.10;15.63;;;14.30;99.90;;;;;;5087819;28;20185;-74
2022/09/25 05:26:01;;;;;;;19.40;16.07;;;14.30;99.90;;;;;;5089638;28;20313;-74
2022/09/25 05:28:31;;;;;;;19.03;14.97;;;14.30;99.90;;;;;;5068548;28;20176;-74
2022/09/25 05:31:02;;;;;;;17.93;13.27;;;14.30;99.90;;;;;;5085774;28;20196;-74
2022/09/25 05:33:31;;;;;;;19.23;15.27;;;14.30;99.90;;;;;;5086103;28;20196;-74
2022/09/25 05:36:04;;;;;;;21.57;16.83;;;14.30;99.90;;;;;;5079848;28;20177;-74
2022/09/25 05:38:34;;;;;;;16.90;14.00;;;14.30;99.90;;;;;;5084655;28;20179;-74
2022/09/25 05:41:03;;;;;;;22.13;17.60;;;14.30;99.90;;;;;;5085001;28;20723;-74
2022/09/25 05:43:30;;;;;;;19.40;15.93;;;14.40;99.90;;;;;;5082486;28;20189;-74
2022/09/25 05:45:57;;;;;;;19.60;16.20;;;14.30;99.90;;;;;;5078807;28;20191;-74
2022/09/25 05:48:23;;;;;;;22.30;17.63;;;14.30;99.90;;;;;;5080606;28;20191;-75
2022/09/25 05:50:53;;;;;;;21.90;18.07;;;14.40;99.90;;;;;;5087449;28;20215;-74
2022/09/25 05:53:19;;;;;;;21.13;17.27;;;14.40;99.90;;;;;;5084437;28;20209;-74
2022/09/25 05:55:57;;;;;;;23.37;18.63;;;14.30;99.90;;;;;;5085950;28;20276;-74
2022/09/25 05:58:24;;;;;;;21.67;18.10;;;14.40;99.90;;;;;;5075689;28;20705;-74
2022/09/25 06:00:50;;;;;;;18.50;15.47;;;14.30;99.90;;;;;;5076919;28;20270;-74
2022/09/25 06:03:16;;;;;;;18.73;16.43;;;14.30;99.90;;;;;;5085718;28;20229;-74
2022/09/25 06:05:45;;;;;;;17.60;14.50;;;14.30;99.90;;;;;;5082443;28;20194;-74
2022/09/25 06:08:12;;;;;;;17.10;15.30;;;14.30;99.90;;;;;;5076819;28;20200;-74
2022/09/25 06:10:39;;;;;;;20.37;16.23;;;14.40;99.90;;;;;;5082816;28;20200;-74
2022/09/25 06:13:05;;;;;;;19.97;16.77;;;14.30;99.90;;;;;;5077705;28;20218;-74
2022/09/25 06:15:36;;;;;;;17.43;15.03;;;14.30;99.90;;;;;;5079649;28;20271;-74
2022/09/25 06:18:06;;;;;;;19.83;16.50;;;14.40;99.90;;;;;;5056671;28;20191;-75
2022/09/25 06:20:32;;;;;;;19.07;16.03;;;14.40;99.90;;;;;;5086614;28;20196;-75
2022/09/25 06:23:02;;;;;;;20.43;17.33;;;14.40;99.90;;;;;;5087826;28;20733;-74
2022/09/25 06:25:31;;;;;;;18.63;15.13;;;14.30;99.90;;;;;;5087887;28;20208;-74
2022/09/25 06:28:01;;;;;;;18.50;15.90;;;14.40;99.90;;;;;;5085906;28;20265;-74
2022/09/25 06:30:35;;;;;;;18.97;14.93;;;14.40;99.90;;;;;;5066452;28;20229;-74
2022/09/25 06:33:01;;;;;;;17.40;14.27;;;14.40;99.90;;;;;;5084175;28;20189;-74
2022/09/25 06:35:30;;;;;;;18.37;14.63;;;14.40;99.90;;;;;;5083941;28;20242;-74
2022/09/25 06:37:57;;;;;;;17.33;13.87;;;14.40;99.90;;;;;;5086316;28;20225;-74
2022/09/25 06:40:26;;;;;;;15.93;13.37;;;14.50;99.90;;;;;;5080833;28;20240;-74
2022/09/25 06:43:00;;;;;;;15.03;13.37;;;14.50;99.90;;;;;;5070046;28;20191;-74
2022/09/25 06:45:27;;;;;;;16.50;14.40;;;14.50;99.90;;;;;;5076153;28;20195;-74
2022/09/25 06:47:56;;;;;;;13.83;12.33;;;14.50;99.90;;;;;;5062625;28;20217;-74
2022/09/25 06:50:30;;;;;;;12.27;10.77;;;14.60;99.90;;;;;;5082630;28;20269;-75
2022/09/25 06:52:59;;;;;;;11.90;10.63;;;14.60;99.90;;;;;;5086065;28;20301;-75
2022/09/25 06:55:26;;;;;;;10.77;9.57;;;14.60;99.90;;;;;;5079235;28;20177;-74
2022/09/25 06:57:52;;;;;;;12.30;10.27;;;14.60;99.90;;;;;;5074608;28;20246;-74
2022/09/25 07:00:18;;;;;;;11.00;9.90;;;14.60;99.90;;;;;;5080196;28;20704;-79
2022/09/25 07:05:28;;;;;;;11.73;9.07;;;14.60;99.90;;;;;;5067742;28;20645;-77
2022/09/25 07:07:54;;;;;;;10.07;9.03;;;14.60;99.90;;;;;;5079339;28;20188;-78
2022/09/25 07:10:21;;;;;;;10.80;9.63;;;14.60;99.90;;;;;;5084262;28;20208;-74
2022/09/25 07:12:47;;;;;;;11.43;9.50;;;14.60;99.90;;;;;;5084441;28;20679;-76
2022/09/25 07:15:14;;;;;;;10.97;9.73;;;14.60;99.90;;;;;;5082089;28;20180;-74
2022/09/25 07:17:43;;;;;;;10.23;8.80;;;14.60;99.90;;;;;;5083350;28;20235;-74
2022/09/25 07:20:12;;;;;;;12.10;9.90;;;14.70;99.90;;;;;;5080888;28;20625;-75
2022/09/25 07:22:39;;;;;;;12.70;10.00;;;14.80;99.90;;;;;;5084231;28;20185;-75
2022/09/25 07:25:06;;;;;;;11.00;9.80;;;14.80;99.90;;;;;;5080607;28;20187;-76
2022/09/25 07:27:32;;;;;;;9.93;8.90;;;14.90;99.90;;;;;;5080831;28;20210;-77
2022/09/25 07:29:58;;;;;;;10.40;9.10;;;14.90;99.90;;;;;;5084038;28;20216;-75
2022/09/25 07:32:23;;;;;;;9.07;8.17;;;15.00;99.90;;;;;;5082848;28;20717;-75
2022/09/25 07:34:49;;;;;;;8.67;7.77;;;15.00;99.90;;;;;;5067269;28;20177;-74
2022/09/25 07:37:16;;;;;;;9.20;8.20;;;15.00;99.90;;;;;;5064118;28;20263;-74
2022/09/25 07:39:42;;;;;;;9.13;8.23;;;15.00;99.90;;;;;;5084033;28;20283;-74
2022/09/25 07:42:08;;;;;;;8.90;8.00;;;15.00;99.90;;;;;;5080843;28;20184;-76
2022/09/25 07:44:34;;;;;;;9.27;8.30;;;15.00;99.90;;;;;;5080049;28;20189;-75
2022/09/25 07:47:02;;;;;;;8.43;7.57;;;15.00;99.90;;;;;;5081592;28;20184;-75
2022/09/25 07:49:29;;;;;;;9.33;7.57;;;15.10;99.90;;;;;;5084833;28;20249;-75
2022/09/25 07:51:55;;;;;;;9.40;8.50;;;15.10;99.90;;;;;;5063795;28;20267;-75
2022/09/25 07:54:22;;;;;;;10.33;8.47;;;15.10;99.90;;;;;;5077490;28;20311;-75
2022/09/25 07:56:48;;;;;;;10.20;8.60;;;15.20;99.90;;;;;;5085894;28;20173;-75
2022/09/25 07:59:14;;;;;;;11.47;9.83;;;15.30;99.90;;;;;;5077097;28;20219;-75
2022/09/25 08:01:39;;;;;;;12.07;10.80;;;15.30;99.90;;;;;;5074068;28;20703;-75
2022/09/25 08:04:05;;;;;;;11.33;10.00;;;15.30;99.90;;;;;;5085076;28;20192;-75
2022/09/25 08:06:34;;;;;;;10.67;9.57;;;15.30;99.90;;;;;;5083293;28;20691;-75
2022/09/25 08:08:59;;;;;;;11.33;10.17;;;15.30;99.90;;;;;;5074457;28;20752;-75
2022/09/25 08:11:26;;;;;;;11.53;10.33;;;15.30;99.90;;;;;;5083236;28;20193;-75
2022/09/25 08:13:53;;;;;;;13.37;10.73;;;15.30;99.90;;;;;;5087938;28;20211;-75
2022/09/25 08:16:21;;;;;;;9.37;8.37;;;15.30;99.90;;;;;;5087503;28;20172;-76
2022/09/25 08:18:48;;;;;;;10.43;9.33;;;15.40;99.90;;;;;;5085878;28;20181;-75
2022/09/25 08:21:16;;;;;;;12.07;10.47;;;15.40;99.90;;;;;;5076519;28;20579;-75
2022/09/25 08:23:47;;;;;;;12.67;11.37;;;15.50;99.90;;;;;;5079482;28;20189;-75
2022/09/25 08:26:14;;;;;;;12.87;11.63;;;15.50;99.90;;;;;;5083424;28;20215;-75
2022/09/25 08:28:39;;;;;;;12.03;10.70;;;15.50;99.90;;;;;;5073972;28;20696;-75
2022/09/25 08:31:05;;;;;;;12.17;10.03;;;15.60;99.90;;;;;;5084576;28;20189;-74
2022/09/25 08:33:33;;;;;;;11.03;9.93;;;15.70;99.90;;;;;;5075715;28;20201;-75
2022/09/25 08:36:03;;;;;;;12.47;10.00;;;15.70;99.90;;;;;;5061894;28;20441;-74
2022/09/25 08:38:33;;;;;;;11.70;10.50;;;15.70;99.90;;;;;;5074127;28;20177;-74
2022/09/25 08:41:04;;;;;;;12.07;10.80;;;15.80;99.90;;;;;;5082766;28;20266;-74
2022/09/25 08:43:34;;;;;;;12.40;11.10;;;15.80;99.90;;;;;;5075874;28;20223;-74
2022/09/25 08:49:01;;;;;;;10.47;9.37;;;15.80;99.90;;;;;;5081058;28;20203;-74
2022/09/25 08:51:47;;;;;;;13.20;11.80;;;15.90;99.90;;;;;;5082942;28;20872;-74
2022/09/25 08:54:20;;;;;;;10.00;8.97;;;15.90;99.90;;;;;;5080208;28;20204;-74
2022/09/25 08:56:50;;;;;;;11.10;9.87;;;15.90;99.90;;;;;;5082074;28;20184;-74
2022/09/25 08:59:25;;;;;;;10.23;9.23;;;16.00;99.90;;;;;;5083264;28;20552;-74
2022/09/25 09:01:55;;;;;;;9.93;8.97;;;16.00;99.90;;;;;;5085460;28;20179;-74
2022/09/25 09:04:31;;;;;;;9.30;7.87;;;16.00;99.90;;;;;;5079091;28;20184;-75
2022/09/25 09:07:23;;;;;;;9.00;8.10;;;16.00;99.90;;;;;;5075390;28;20219;-74
2022/09/25 09:10:00;;;;;;;8.33;7.53;;;16.00;99.90;;;;;;5064340;28;20266;-74
2022/09/25 09:12:46;;;;;;;8.73;7.93;;;15.90;99.90;;;;;;5078011;28;20208;-74
2022/09/25 09:15:17;;;;;;;8.20;7.40;;;16.00;99.90;;;;;;5072721;28;20189;-75
2022/09/25 09:17:43;;;;;;;8.17;7.47;;;16.00;99.90;;;;;;5076583;28;20859;-74
2022/09/25 09:20:18;;;;;;;7.70;7.00;;;16.00;99.90;;;;;;5082427;28;20197;-74
2022/09/25 09:22:49;;;;;;;8.30;7.50;;;16.00;99.90;;;;;;5084791;28;20199;-74
2022/09/25 09:25:23;;;;;;;7.80;6.97;;;16.00;99.90;;;;;;5061749;28;20757;-74
2022/09/25 09:28:03;;;;;;;8.00;7.10;;;16.00;99.90;;;;;;5085670;28;20184;-73
2022/09/25 09:30:36;;;;;;;8.50;7.60;;;16.10;99.90;;;;;;5081625;28;20197;-73
2022/09/25 09:33:21;;;;;;;8.20;7.33;;;16.00;99.90;;;;;;5080542;28;20205;-74
2022/09/25 09:36:07;;;;;;;8.20;7.40;;;16.00;99.90;;;;;;5082494;28;20185;-75
2022/09/25 09:38:47;;;;;;;6.97;6.37;;;16.00;99.90;;;;;;5084036;28;20181;-74
2022/09/25 09:41:33;;;;;;;6.63;6.03;;;16.10;99.90;;;;;;5072498;28;20207;-76
2022/09/25 09:44:23;;;;;;;6.70;6.10;;;16.20;99.90;;;;;;5083812;28;20188;-76
2022/09/25 09:47:02;;;;;;;6.10;5.60;;;16.20;99.90;;;;;;5062078;28;20234;-73
2022/09/25 09:49:38;;;;;;;5.13;4.63;;;16.20;99.90;;;;;;5078950;28;20661;-73
2022/09/25 09:52:16;;;;;;;4.50;4.10;;;16.30;99.90;;;;;;5077792;28;20262;-77
2022/09/25 09:55:03;;;;;;;4.70;4.30;;;16.30;99.90;;;;;;5082423;28;20182;-73
2022/09/25 09:57:56;;;;;;;5.50;5.00;;;16.40;99.90;;;;;;5078087;28;20197;-72
2022/09/25 10:00:23;;;;;;;5.37;4.83;;;16.50;99.90;;;;;;5077492;28;20238;-72
2022/09/25 10:02:57;;;;;;;5.10;4.70;;;16.50;99.90;;;;;;5048582;28;20645;-73
2022/09/25 10:05:24;;;;;;;5.43;4.93;;;16.70;99.90;;;;;;5084010;28;20181;-73
2022/09/25 10:07:51;;;;;;;5.13;4.63;;;16.70;99.90;;;;;;5081894;28;20543;-75
2022/09/25 10:10:18;;;;;;;4.70;4.30;;;16.70;99.90;;;;;;5071466;28;20205;-77
2022/09/25 10:12:50;;;;;;;4.00;3.70;;;16.80;99.90;;;;;;5077720;28;20883;-78
2022/09/25 10:15:31;;;;;;;4.73;4.33;;;16.70;99.90;;;;;;5063730;28;20210;-79
2022/09/25 10:18:00;;;;;;;5.70;5.20;;;16.80;99.90;;;;;;5081265;28;20208;-78
2022/09/25 10:20:34;;;;;;;4.93;4.43;;;16.70;99.90;;;;;;5064734;28;20303;-77
2022/09/25 10:23:03;;;;;;;6.20;5.60;;;16.80;99.90;;;;;;5072934;28;20917;-75
2022/09/25 10:25:38;;;;;;;6.80;6.20;;;16.80;99.90;;;;;;5074303;28;20252;-73
2022/09/25 10:28:31;;;;;;;6.60;5.97;;;16.90;99.90;;;;;;5058241;28;20760;-75
2022/09/25 10:30:58;;;;;;;6.93;6.23;;;17.10;99.90;;;;;;5075917;28;20201;-75
2022/09/25 10:33:27;;;;;;;7.00;6.30;;;17.20;99.90;;;;;;5076013;28;20257;-75
2022/09/25 10:35:53;;;;;;;6.83;6.13;;;17.30;99.90;;;;;;5058786;28;20184;-75
2022/09/25 10:38:33;;;;;;;6.63;6.03;;;17.40;99.90;;;;;;5078496;28;20567;-75
2022/09/25 10:41:16;;;;;;;5.87;5.03;;;17.50;99.90;;;;;;5075612;28;20212;-75
2022/09/25 10:44:00;;;;;;;6.10;5.50;;;17.40;99.90;;;;;;5073961;28;20263;-75
2022/09/25 10:52:12;;;;;;;5.70;5.20;;;17.70;99.90;;;;;;5076178;28;20216;-75
2022/09/25 10:54:38;;;;;;;6.23;5.63;;;17.70;99.90;;;;;;5076308;28;20619;-75
2022/09/25 10:57:25;;;;;;;5.50;5.00;;;17.70;99.90;;;;;;5076770;28;20177;-74
2022/09/25 10:59:52;;;;;;;5.73;5.23;;;17.70;99.90;;;;;;5076040;28;20213;-77
2022/09/25 11:02:45;;;;;;;5.33;4.83;;;17.80;99.90;;;;;;5074394;28;20192;-78
2022/09/25 11:05:18;;;;;;;4.70;4.30;;;17.90;99.90;;;;;;5068318;28;20196;-74
2022/09/25 11:07:51;;;;;;;4.83;4.43;;;17.90;99.90;;;;;;5079087;28;20169;-80
2022/09/25 11:10:28;;;;;;;5.33;4.83;;;17.70;99.90;;;;;;5075052;28;20197;-78
2022/09/25 11:12:55;;;;;;;5.53;5.00;;;17.60;99.90;;;;;;5077593;28;20257;-78
2022/09/25 11:15:26;;;;;;;5.20;4.70;;;17.60;99.90;;;;;;5073241;28;20197;-75
2022/09/25 11:17:54;;;;;;;5.00;4.60;;;17.50;99.90;;;;;;5070102;28;20183;-76
2022/09/25 11:20:30;;;;;;;6.83;6.10;;;17.50;99.90;;;;;;5078609;28;20217;-82
2022/09/25 11:23:13;;;;;;;6.53;4.90;;;17.60;99.90;;;;;;5076777;28;20219;-80
2022/09/25 11:25:56;;;;;;;5.37;4.87;;;17.60;99.90;;;;;;5068627;28;20445;-80
2022/09/25 11:28:34;;;;;;;6.53;5.83;;;17.40;99.90;;;;;;5070229;28;20192;-82
2022/09/25 11:31:16;;;;;;;7.07;6.00;;;17.30;99.90;;;;;;5069197;28;20209;-81
2022/09/25 11:34:07;;;;;;;7.47;6.30;;;17.30;99.90;;;;;;5096186;28;20212;-82
2022/09/25 11:36:57;;;;;;;6.93;5.93;;;17.50;99.90;;;;;;5079774;28;20738;-82
2022/09/25 11:42:44;;;;;;;5.90;5.30;;;17.90;99.90;;;;;;5070027;28;20189;-80
2022/09/25 11:45:19;;;;;;;6.80;6.20;;;18.10;99.90;;;;;;5073729;28;20230;-78
2022/09/25 11:47:58;;;;;;;6.50;5.90;;;18.30;99.90;;;;;;5079568;28;20208;-78
2022/09/25 11:50:44;;;;;;;6.03;5.43;;;18.50;99.90;;;;;;5065413;28;20208;-78
2022/09/25 11:53:13;;;;;;;5.83;5.33;;;18.50;99.90;;;;;;5082844;28;20271;-76
2022/09/25 11:55:45;;;;;;;5.53;4.90;;;18.60;99.90;;;;;;5088458;28;20190;-77
2022/09/25 11:58:44;;;;;;;5.63;5.03;;;18.70;99.90;;;;;;5066401;28;20176;-78
2022/09/25 12:01:24;;;;;;;5.20;4.70;;;18.80;99.90;;;;;;5075195;28;20197;-77
2022/09/25 12:04:17;;;;;;;5.67;4.37;;;18.80;99.90;;;;;;5084935;28;20184;-78
2022/09/25 12:07:09;;;;;;;4.77;4.37;;;18.90;99.90;;;;;;5084197;28;20222;-78
2022/09/25 12:10:11;;;;;;;5.63;5.13;;;19.20;99.90;;;;;;5066541;28;20218;-78
2022/09/25 12:12:58;;;;;;;4.97;4.57;;;19.40;99.90;;;;;;5076105;28;20203;-79
2022/09/25 12:15:41;;;;;;;4.83;4.43;;;19.40;99.90;;;;;;5069525;28;20215;-79
2022/09/25 12:18:42;;;;;;;5.23;4.73;;;19.40;98.80;;;;;;5085140;28;20184;-80
2022/09/25 12:21:11;;;;;;;5.03;4.63;;;19.40;97.70;;;;;;5048564;28;20203;-79
2022/09/25 12:23:48;;;;;;;6.20;5.60;;;19.20;97.40;;;;;;5085307;28;20189;-79
2022/09/25 12:26:47;;;;;;;5.90;5.40;;;19.10;99.60;;;;;;5080003;28;20188;-79
2022/09/25 12:29:49;;;;;;;6.47;5.80;;;18.90;99.90;;;;;;5060025;28;20239;-79
2022/09/25 12:32:52;;;;;;;6.47;5.87;;;18.80;99.90;;;;;;5085797;28;20176;-84
2022/09/25 12:35:55;;;;;;;7.87;6.30;;;18.80;99.90;;;;;;5034681;28;20270;-77
2022/09/25 12:38:54;;;;;;;7.90;7.20;;;18.90;99.90;;;;;;5079960;28;21604;-78
2022/09/25 12:41:42;;;;;;;7.73;6.93;;;18.90;99.90;;;;;;5090127;28;20187;-82
2022/09/25 12:44:14;;;;;;;7.97;7.17;;;18.80;99.90;;;;;;5072749;28;20483;-81
2022/09/25 12:46:42;;;;;;;8.10;7.30;;;18.60;99.90;;;;;;5067838;28;20184;-82
2022/09/25 12:49:19;;;;;;;7.73;6.93;;;18.50;99.90;;;;;;5082865;28;20208;-81
2022/09/25 12:51:53;;;;;;;8.60;7.80;;;18.40;99.90;;;;;;5055129;28;20222;-81
2022/09/25 12:54:31;;;;;;;8.50;7.60;;;18.20;99.90;;;;;;5072030;28;20205;-80
2022/09/25 12:57:01;;;;;;;7.70;6.90;;;18.20;99.90;;;;;;5064105;28;20542;-80
2022/09/25 12:59:51;;;;;;;12.50;11.00;;;18.10;99.90;;;;;;5084642;28;20889;-81
2022/09/25 13:02:47;;;;;;;12.17;10.50;;;17.80;99.90;;;;;;5065120;28;20196;-76
2022/09/25 13:05:32;;;;;;;17.23;13.00;;;17.50;99.90;;;;;;5054960;28;20668;-80
2022/09/25 13:08:05;;;;;;;14.13;12.63;;;17.20;99.90;;;;;;5084787;28;20184;-79
2022/09/25 13:10:43;;;;;;;17.00;14.43;;;17.20;99.90;;;;;;5061614;28;20277;-80
2022/09/25 13:13:18;;;;;;;16.40;13.73;;;17.20;99.90;;;;;;5078839;28;21028;-76
2022/09/25 13:15:49;;;;;;;18.17;14.47;;;17.30;99.90;;;;;;5079899;28;20181;-76
2022/09/25 13:18:19;;;;;;;19.97;14.97;;;17.30;99.90;;;;;;5076416;28;20176;-76
2022/09/25 13:20:53;;;;;;;17.13;14.77;;;17.20;99.90;;;;;;5087971;28;20230;-77
2022/09/25 13:23:34;;;;;;;15.00;13.40;;;17.10;99.90;;;;;;5076111;28;20192;-75
2022/09/25 13:26:13;;;;;;;15.70;14.00;;;17.10;99.90;;;;;;5085216;28;20648;-74
2022/09/25 13:28:52;;;;;;;15.80;14.20;;;17.20;99.90;;;;;;5084564;28;20175;-76
2022/09/25 13:31:28;;;;;;;14.97;13.37;;;17.20;99.90;;;;;;5086556;28;20188;-78
2022/09/25 13:34:04;;;;;;;15.20;13.70;;;17.20;99.90;;;;;;5066440;28;20223;-74
2022/09/25 13:36:37;;;;;;;16.43;13.50;;;17.40;99.90;;;;;;5083066;28;20185;-74
2022/09/25 13:42:37;;;;;;;13.43;12.00;;;17.50;99.90;;;;;;5086241;28;20180;-74
2022/09/25 13:45:31;;;;;;;11.50;10.37;;;17.60;99.90;;;;;;5083502;28;20218;-74